Olympia Regional Airport
KOLM : now visible

Airfield :











YOU CAN JOIN US ON...

 
LOGIN :

Register | Disclaimer

   EN    FR    IT 

 









Legend :    VFR   Marginal VFR   IFR   Intensive IFR   Very Intensive IFR
Visi :
Ceiling :
>= 8 km
>= 3000ft
5 to 8 km
1000 to 3000 ft
1500m to 5 km
500 to 1000 ft
800 to 1500m
200 to 500 ft
< 800m
< 200 ft
Symbols :   Thunderstorms  Fog  Heavy snow  Heavy precipitations  Wind > 20 kt






- Airport Elevation : 209 ft
- IATA code : OLM


KOLM - Olympia Regional

CURRENT METAR :
  • 010154Z 25008KT 10SM FEW027 BKN055 05/02 A3006 RMK AO2 RAB0059E42 SLP179 P0004 T00500022

EXPIRED METARs :
  • 010150Z 25010KT 10SM SCT025 SCT047 BKN060 05/02 A3006 RMK AO2 RAB0059E42 P0004
  • 010130Z 25008G16KT 3SM -RA BKN027 OVC037 05/02 A3006 RMK AO2 RAB0059 P0003 T00500022
  • 010054Z 23006KT 10SM FEW037 SCT046 BKN070 07/02 A3004 RMK AO2 RAB29E40 SLP174 P0000 T00720022
  • 312354Z 24009G15KT 10SM FEW040 SCT090 BKN120 08/03 A3004 RMK AO2 RAE01 SLP173 P0000 60010 T00780028 10083 20044 58002

TAF KOLM
Valid from the 01 at 00:00 until the 02 at 00:00 UTC


312330Z 0100/0124 23009KT P6SM VCSH BKN025 BKN050
FM010200 22006KT P6SM VCSH SCT030 BKN045
FM010600 VRB05KT P6SM SCT015 OVC030



MET'MAP, your aeronautical weather chart ! - Copyright ORBIFLY December 2007 - Disclaimer

ORBIFLY MET'MAP TEAM :

Programming & Development : Alexandra Zaïnal
Concept & original design : Baudouin d'Aumeries
Assistance for programming : Marc-Olivier Méhu
Technical & hardware support : Manuel Goepfert

Contact : metmap@orbifly.com




SOURCES & CREDITS :

   NOAA       Earth
Advisory